createdAt,value
2018-03-25T00:01:08.000Z,7.00
2018-03-25T00:03:36.119Z,7.00
2018-03-25T00:06:04.338Z,7.00
2018-03-25T00:08:32.460Z,7.00
2018-03-25T00:11:00.576Z,7.00
2018-03-25T00:13:29.447Z,6.90
2018-03-25T00:15:57.571Z,6.90
2018-03-25T00:18:25.684Z,6.90
2018-03-25T00:20:53.888Z,6.90
2018-03-25T00:23:22.016Z,6.80
2018-03-25T00:25:50.133Z,6.80
2018-03-25T00:28:18.240Z,6.80
2018-03-25T00:30:46.374Z,6.70
2018-03-25T00:33:15.285Z,6.60
2018-03-25T00:35:44.139Z,6.70
2018-03-25T00:38:13.036Z,6.60
2018-03-25T00:40:41.931Z,6.60
2018-03-25T00:43:10.823Z,6.50
2018-03-25T00:45:39.695Z,6.50
2018-03-25T00:48:07.917Z,6.50
2018-03-25T00:50:36.030Z,6.40
2018-03-25T00:53:04.157Z,6.40
2018-03-25T00:55:32.267Z,6.40
2018-03-25T00:58:00.375Z,6.40
2018-03-25T01:00:29.275Z,6.20
2018-03-25T01:02:57.391Z,6.20
2018-03-25T01:05:25.515Z,6.20
2018-03-25T01:07:54.447Z,6.10
2018-03-25T01:10:22.552Z,6.10
2018-03-25T01:12:52.191Z,6.10
2018-03-25T01:15:20.295Z,6.10
2018-03-25T01:17:48.404Z,6.00
2018-03-25T01:20:16.559Z,6.00
2018-03-25T01:22:44.785Z,6.00
2018-03-25T01:25:12.883Z,5.90
2018-03-25T01:27:40.989Z,5.90
2018-03-25T01:30:09.131Z,5.90
2018-03-25T01:32:37.363Z,5.80
2018-03-25T01:35:05.439Z,5.80
2018-03-25T01:37:34.315Z,5.70
2018-03-25T01:40:03.203Z,5.70
2018-03-25T01:42:32.091Z,5.60
2018-03-25T01:45:01.000Z,5.60
2018-03-25T01:47:29.171Z,5.50
2018-03-25T01:49:58.070Z,5.60
2018-03-25T01:52:26.209Z,5.50
2018-03-25T01:54:54.333Z,5.50
2018-03-25T01:57:22.438Z,5.50
2018-03-25T01:59:50.601Z,5.50
2018-03-25T02:02:18.715Z,5.40
2018-03-25T02:04:47.585Z,5.40
2018-03-25T02:07:16.464Z,5.40
2018-03-25T02:09:44.621Z,5.40
2018-03-25T02:12:12.748Z,5.40
2018-03-25T02:14:41.625Z,5.40
2018-03-25T02:17:10.500Z,5.30
2018-03-25T02:19:38.639Z,5.30
2018-03-25T02:22:06.765Z,5.30
2018-03-25T02:24:35.657Z,5.30
2018-03-25T02:27:03.753Z,5.30
2018-03-25T02:29:31.872Z,5.30
2018-03-25T02:32:00.008Z,5.20
2018-03-25T02:34:28.126Z,5.20
2018-03-25T02:36:56.235Z,5.20
2018-03-25T02:39:24.359Z,5.10
2018-03-25T02:41:52.471Z,5.10
2018-03-25T02:44:20.615Z,5.10
2018-03-25T02:46:48.739Z,5.00
2018-03-25T02:49:16.880Z,5.00
2018-03-25T02:51:45.798Z,4.90
2018-03-25T02:54:13.971Z,4.90
2018-03-25T02:56:42.123Z,4.90
2018-03-25T02:59:10.236Z,4.90
2018-03-25T03:01:38.359Z,4.80
2018-03-25T03:04:07.280Z,4.70
2018-03-25T03:06:35.388Z,4.70
2018-03-25T03:09:03.488Z,4.70
2018-03-25T03:11:32.388Z,4.70
2018-03-25T03:14:01.278Z,4.60
2018-03-25T03:16:30.156Z,4.60
2018-03-25T03:18:59.026Z,4.60
2018-03-25T03:21:27.158Z,4.60
2018-03-25T03:23:55.306Z,4.50
2018-03-25T03:26:23.484Z,4.50
2018-03-25T03:28:51.615Z,4.50
2018-03-25T03:31:19.745Z,4.50
2018-03-25T03:33:47.864Z,4.40
2018-03-25T03:36:15.972Z,4.40
2018-03-25T03:38:44.124Z,4.40
2018-03-25T03:41:13.000Z,4.30
2018-03-25T03:43:41.208Z,4.30
2018-03-25T03:46:09.316Z,4.30
2018-03-25T03:48:37.438Z,4.30
2018-03-25T03:51:06.349Z,4.20
2018-03-25T03:53:35.219Z,4.20
2018-03-25T03:56:04.104Z,4.10
2018-03-25T03:58:32.980Z,4.10
2018-03-25T04:01:01.102Z,4.10
2018-03-25T04:03:29.220Z,4.10
2018-03-25T04:05:57.336Z,4.10
2018-03-25T04:08:25.488Z,4.00
2018-03-25T04:10:54.404Z,4.00
2018-03-25T04:13:22.564Z,4.00
2018-03-25T04:15:50.675Z,4.00
2018-03-25T04:18:18.811Z,3.90
2018-03-25T04:20:46.923Z,3.90
2018-03-25T04:23:15.033Z,3.90
2018-03-25T04:25:43.940Z,3.80
2018-03-25T04:28:12.811Z,3.80
2018-03-25T04:30:41.700Z,3.80
2018-03-25T04:33:10.591Z,3.70
2018-03-25T04:35:39.508Z,3.70
2018-03-25T04:38:07.630Z,3.70
2018-03-25T04:40:35.732Z,3.70
2018-03-25T04:43:04.631Z,3.70
2018-03-25T04:45:33.537Z,3.70
2018-03-25T04:48:01.651Z,3.60
2018-03-25T04:50:29.793Z,3.60
2018-03-25T04:52:57.920Z,3.60
2018-03-25T04:55:26.037Z,3.60
2018-03-25T04:57:54.147Z,3.60
2018-03-25T05:00:22.259Z,3.60
2018-03-25T05:02:50.391Z,3.60
2018-03-25T05:05:18.525Z,3.50
2018-03-25T05:07:46.643Z,3.50
2018-03-25T05:10:14.765Z,3.50
2018-03-25T05:12:42.915Z,3.50
2018-03-25T05:15:11.795Z,3.50
2018-03-25T05:17:40.671Z,3.50
2018-03-25T05:20:08.806Z,3.40
2018-03-25T05:22:36.927Z,3.40
2018-03-25T05:25:05.808Z,3.40
2018-03-25T05:27:33.922Z,3.40
2018-03-25T05:30:02.073Z,3.40
2018-03-25T05:32:30.971Z,3.40
2018-03-25T05:34:59.074Z,3.30
2018-03-25T05:37:27.211Z,3.40
2018-03-25T05:39:56.087Z,3.40
2018-03-25T05:42:25.018Z,3.40
2018-03-25T05:44:53.111Z,3.30
2018-03-25T05:47:21.225Z,3.30
2018-03-25T05:49:50.141Z,3.30
2018-03-25T05:52:18.278Z,3.30
2018-03-25T05:54:47.155Z,3.40
2018-03-25T05:57:15.274Z,3.30
2018-03-25T05:59:43.410Z,3.40
2018-03-25T06:02:11.543Z,3.40
2018-03-25T06:04:39.673Z,3.40
2018-03-25T06:07:08.604Z,3.40
2018-03-25T06:09:36.743Z,3.40
2018-03-25T06:12:04.876Z,3.40
2018-03-25T06:14:32.999Z,3.50
2018-03-25T06:17:01.121Z,3.50
2018-03-25T06:19:29.245Z,3.50
2018-03-25T06:21:57.360Z,3.60
2018-03-25T06:24:25.471Z,3.60
2018-03-25T06:26:53.590Z,3.60
2018-03-25T06:29:21.760Z,3.70
2018-03-25T06:31:49.886Z,3.70
2018-03-25T06:34:18.063Z,3.80
2018-03-25T06:36:46.191Z,3.80
2018-03-25T06:39:14.314Z,3.90
2018-03-25T06:41:42.442Z,4.00
2018-03-25T06:44:10.648Z,4.00
2018-03-25T06:46:39.528Z,4.20
2018-03-25T06:49:08.414Z,4.30
2018-03-25T06:51:37.324Z,4.40
2018-03-25T06:54:05.444Z,4.40
2018-03-25T06:56:33.558Z,4.50
2018-03-25T06:59:02.453Z,4.60
2018-03-25T07:01:31.332Z,4.70
2018-03-25T07:04:00.252Z,4.80
2018-03-25T07:06:28.359Z,4.80
2018-03-25T07:08:56.580Z,4.80
2018-03-25T07:11:25.494Z,5.00
2018-03-25T07:13:53.614Z,5.00
2018-03-25T07:16:21.720Z,5.10
2018-03-25T07:18:50.587Z,5.20
2018-03-25T07:21:19.491Z,5.20
2018-03-25T07:23:48.428Z,5.30
2018-03-25T07:26:16.536Z,5.30
2018-03-25T07:28:44.684Z,5.40
2018-03-25T07:31:12.808Z,5.50
2018-03-25T07:33:40.967Z,5.50
2018-03-25T07:36:09.843Z,5.70
2018-03-25T07:38:37.955Z,5.70
2018-03-25T07:41:06.103Z,5.80
2018-03-25T07:43:35.012Z,5.90
2018-03-25T07:46:03.088Z,5.90
2018-03-25T07:48:31.267Z,5.90
2018-03-25T07:50:59.449Z,5.90
2018-03-25T07:53:27.551Z,5.90
2018-03-25T07:55:55.659Z,5.90
2018-03-25T07:58:24.565Z,6.10
2018-03-25T08:00:52.683Z,6.10
2018-03-25T08:03:20.903Z,6.10
2018-03-25T08:05:49.019Z,6.20
2018-03-25T08:08:17.131Z,6.20
2018-03-25T08:10:46.035Z,6.40
2018-03-25T08:13:14.923Z,6.50
2018-03-25T08:15:43.803Z,6.60
2018-03-25T08:18:12.679Z,6.60
2018-03-25T08:20:40.879Z,6.60
2018-03-25T08:23:09.807Z,6.80
2018-03-25T08:25:37.955Z,6.70
2018-03-25T08:28:06.073Z,6.90
2018-03-25T08:30:34.195Z,6.90
2018-03-25T08:33:02.345Z,7.00
2018-03-25T08:35:31.239Z,7.30
2018-03-25T08:38:00.119Z,7.30
2018-03-25T08:40:29.033Z,7.50
2018-03-25T08:42:57.187Z,7.40
2018-03-25T08:45:25.355Z,7.60
2018-03-25T08:47:53.453Z,7.70
2018-03-25T08:50:21.561Z,7.80
2018-03-25T08:52:49.785Z,8.00
2018-03-25T08:55:18.656Z,8.20
2018-03-25T08:57:48.272Z,8.20
2018-03-25T09:00:16.399Z,8.20
2018-03-25T09:02:44.534Z,8.40
2018-03-25T09:05:12.666Z,8.50
2018-03-25T09:07:40.778Z,8.50
2018-03-25T09:10:08.888Z,8.60
2018-03-25T09:12:37.032Z,8.60
2018-03-25T09:15:05.154Z,8.70
2018-03-25T09:17:33.258Z,8.70
2018-03-25T09:20:02.133Z,8.90
2018-03-25T09:22:31.030Z,9.00
2018-03-25T09:24:59.958Z,9.00
2018-03-25T09:27:28.072Z,9.00
2018-03-25T09:29:56.174Z,9.10
2018-03-25T09:32:25.102Z,9.10
2018-03-25T09:34:53.229Z,9.10
2018-03-25T09:37:21.422Z,9.10
2018-03-25T09:39:49.560Z,9.20
2018-03-25T09:42:17.698Z,9.30
2018-03-25T09:44:45.809Z,9.40
2018-03-25T09:47:14.000Z,9.40
2018-03-25T09:49:42.874Z,9.50
2018-03-25T09:52:11.756Z,9.60
2018-03-25T09:54:39.975Z,9.60
2018-03-25T09:57:08.080Z,9.80
2018-03-25T09:59:36.186Z,9.90
2018-03-25T10:02:05.076Z,9.90
2018-03-25T10:04:33.186Z,9.90
2018-03-25T10:07:01.332Z,10.00
2018-03-25T10:09:29.474Z,10.10
2018-03-25T10:11:57.588Z,10.20
2018-03-25T10:14:25.766Z,10.30
2018-03-25T10:16:54.616Z,10.60
2018-03-25T10:19:22.746Z,10.60
2018-03-25T10:21:50.864Z,10.60
2018-03-25T10:24:19.880Z,10.70
2018-03-25T10:26:48.763Z,10.80
2018-03-25T10:29:17.655Z,10.90
2018-03-25T10:31:46.572Z,11.00
2018-03-25T10:34:14.722Z,11.00
2018-03-25T10:36:43.632Z,11.10
2018-03-25T10:39:11.829Z,11.10
2018-03-25T10:41:39.950Z,11.20
2018-03-25T10:44:08.899Z,11.20
2018-03-25T10:46:37.024Z,11.10
2018-03-25T10:49:05.904Z,11.30
2018-03-25T10:51:34.061Z,11.30
2018-03-25T10:54:02.191Z,11.40
2018-03-25T10:56:30.328Z,11.40
2018-03-25T10:58:59.339Z,11.60
2018-03-25T11:01:27.511Z,11.60
2018-03-25T11:03:55.713Z,11.60
2018-03-25T11:06:23.973Z,11.70
2018-03-25T11:08:52.081Z,11.80
2018-03-25T11:11:20.199Z,11.90
2018-03-25T11:13:48.339Z,11.90
2018-03-25T11:16:17.297Z,12.00
2018-03-25T11:18:46.159Z,12.10
2018-03-25T11:21:14.310Z,12.10
2018-03-25T11:23:43.203Z,12.20
2018-03-25T11:26:12.113Z,12.30
2018-03-25T11:28:40.231Z,12.30
2018-03-25T11:31:08.359Z,12.40
2018-03-25T11:33:36.525Z,12.40
2018-03-25T11:36:05.448Z,12.50
2018-03-25T11:38:33.599Z,12.50
2018-03-25T11:41:01.722Z,12.50
2018-03-25T11:43:29.887Z,12.50
2018-03-25T11:45:58.127Z,12.50
2018-03-25T11:48:26.274Z,12.60
2018-03-25T11:50:55.878Z,12.70
2018-03-25T11:53:24.945Z,12.80
2018-03-25T11:55:53.069Z,12.80
2018-03-25T11:58:21.183Z,12.70
2018-03-25T12:00:49.407Z,12.80
2018-03-25T12:03:17.561Z,12.80
2018-03-25T12:05:46.574Z,12.90
2018-03-25T12:08:14.715Z,12.90
2018-03-25T12:10:43.611Z,13.10
2018-03-25T12:13:12.523Z,13.10
2018-03-25T12:15:41.450Z,13.10
2018-03-25T12:18:09.587Z,13.10
2018-03-25T12:20:37.719Z,13.20
2018-03-25T12:23:05.935Z,13.30
2018-03-25T12:25:34.082Z,13.30
2018-03-25T12:28:03.018Z,13.20
2018-03-25T12:30:31.155Z,13.20
2018-03-25T12:32:59.295Z,13.20
2018-03-25T12:35:27.446Z,13.20
2018-03-25T12:37:55.564Z,13.30
2018-03-25T12:40:23.770Z,13.30
2018-03-25T12:42:51.927Z,13.40
2018-03-25T12:45:20.833Z,13.50
2018-03-25T12:47:48.957Z,13.40
2018-03-25T12:50:17.094Z,13.50
2018-03-25T12:52:45.360Z,13.70
2018-03-25T12:55:13.561Z,13.70
2018-03-25T12:57:41.815Z,13.80
2018-03-25T13:00:09.944Z,13.80
2018-03-25T13:02:39.578Z,13.70
2018-03-25T13:05:08.482Z,13.70
2018-03-25T13:07:36.612Z,13.70
2018-03-25T13:10:04.738Z,13.80
2018-03-25T13:12:32.894Z,13.80
2018-03-25T13:15:01.792Z,14.00
2018-03-25T13:17:29.946Z,13.90
2018-03-25T13:19:58.839Z,14.10
2018-03-25T13:22:27.746Z,14.20
2018-03-25T13:24:56.652Z,14.20
2018-03-25T13:27:24.796Z,14.10
2018-03-25T13:29:53.702Z,14.20
2018-03-25T13:32:22.041Z,14.20
2018-03-25T13:34:50.208Z,14.20
2018-03-25T13:37:18.325Z,14.20
2018-03-25T13:39:46.496Z,14.20
2018-03-25T13:42:14.615Z,14.20
2018-03-25T13:44:42.996Z,14.30
2018-03-25T13:47:11.118Z,14.40
2018-03-25T13:49:39.321Z,14.50
2018-03-25T13:52:07.429Z,14.60
2018-03-25T13:54:35.592Z,14.70
2018-03-25T13:57:03.720Z,14.80
2018-03-25T13:59:31.847Z,14.90
2018-03-25T14:01:59.992Z,14.90
2018-03-25T14:04:28.911Z,14.90
2018-03-25T14:06:57.228Z,14.90
2018-03-25T14:09:25.407Z,14.90
2018-03-25T14:11:53.532Z,14.90
2018-03-25T14:14:23.264Z,15.00
2018-03-25T14:16:52.162Z,15.10
2018-03-25T14:19:21.193Z,15.10
2018-03-25T14:21:49.309Z,15.10
2018-03-25T14:24:17.509Z,15.10
2018-03-25T14:26:46.407Z,15.10
2018-03-25T14:29:14.535Z,15.10
2018-03-25T14:31:42.655Z,15.10
2018-03-25T14:34:10.822Z,15.00
2018-03-25T14:36:38.981Z,15.00
2018-03-25T14:39:07.865Z,15.10
2018-03-25T14:41:36.797Z,15.10
2018-03-25T14:44:05.061Z,15.10
2018-03-25T14:46:33.181Z,15.20
2018-03-25T14:49:01.311Z,15.30
2018-03-25T14:51:29.436Z,15.30
2018-03-25T14:53:57.568Z,15.40
2018-03-25T14:56:25.699Z,15.40
2018-03-25T14:58:54.727Z,15.30
2018-03-25T15:01:22.885Z,15.30
2018-03-25T15:03:51.055Z,15.40
2018-03-25T15:06:19.923Z,15.50
2018-03-25T15:08:48.840Z,15.40
2018-03-25T15:11:17.717Z,15.40
2018-03-25T15:13:46.623Z,15.40
2018-03-25T15:16:14.776Z,15.30
2018-03-25T15:18:43.682Z,15.40
2018-03-25T15:21:11.813Z,15.40
2018-03-25T15:23:39.925Z,15.40
2018-03-25T15:26:08.806Z,15.30
2018-03-25T15:28:37.719Z,15.30
2018-03-25T15:31:05.855Z,15.30
2018-03-25T15:33:33.987Z,15.20
2018-03-25T15:36:02.137Z,15.10
2018-03-25T15:38:30.410Z,15.00
2018-03-25T15:40:58.550Z,15.00
2018-03-25T15:43:26.668Z,15.00
2018-03-25T15:45:54.808Z,15.00
2018-03-25T15:48:23.850Z,14.90
2018-03-25T15:50:51.956Z,14.80
2018-03-25T15:53:20.160Z,14.80
2018-03-25T15:55:49.182Z,14.80
2018-03-25T15:58:17.356Z,14.80
2018-03-25T16:00:45.530Z,14.70
2018-03-25T16:03:13.667Z,14.60
2018-03-25T16:05:42.552Z,14.60
2018-03-25T16:08:11.444Z,14.60
2018-03-25T16:10:40.393Z,14.70
2018-03-25T16:13:08.515Z,14.70
2018-03-25T16:15:36.651Z,14.60
2018-03-25T16:18:04.800Z,14.60
2018-03-25T16:20:32.952Z,14.50
2018-03-25T16:23:01.069Z,14.50
2018-03-25T16:25:29.202Z,14.40
2018-03-25T16:27:57.365Z,14.30
2018-03-25T16:30:25.486Z,14.30
2018-03-25T16:32:53.706Z,14.30
2018-03-25T16:35:21.864Z,14.30
2018-03-25T16:37:50.788Z,14.20
2018-03-25T16:40:18.900Z,14.20
2018-03-25T16:42:47.786Z,14.10
2018-03-25T16:45:16.002Z,14.10
2018-03-25T16:47:44.197Z,14.10
2018-03-25T16:50:12.332Z,14.00
2018-03-25T16:52:41.229Z,14.00
2018-03-25T16:55:09.381Z,13.90
2018-03-25T16:57:37.462Z,14.00
2018-03-25T17:00:05.608Z,13.90
2018-03-25T17:02:33.726Z,14.00
2018-03-25T17:05:02.625Z,13.90
2018-03-25T17:07:31.548Z,13.90
2018-03-25T17:09:59.679Z,13.90
2018-03-25T17:12:28.609Z,13.80
2018-03-25T17:14:56.756Z,13.80
2018-03-25T17:17:25.016Z,13.70
2018-03-25T17:19:54.022Z,13.60
2018-03-25T17:22:22.183Z,13.60
2018-03-25T17:24:51.110Z,13.50
2018-03-25T17:27:19.360Z,13.40
2018-03-25T17:29:47.508Z,13.40
2018-03-25T17:32:15.702Z,13.30
2018-03-25T17:34:43.836Z,13.30
2018-03-25T17:37:11.980Z,13.30
2018-03-25T17:39:40.141Z,13.20
2018-03-25T17:42:09.026Z,13.10
2018-03-25T17:44:37.891Z,13.00
2018-03-25T17:47:07.080Z,12.90
2018-03-25T17:49:35.448Z,12.90
2018-03-25T17:52:05.072Z,12.80
2018-03-25T17:54:34.012Z,12.70
2018-03-25T17:57:02.132Z,12.70
2018-03-25T17:59:31.129Z,12.60
2018-03-25T18:02:00.016Z,12.60
2018-03-25T18:04:28.932Z,12.50
2018-03-25T18:06:57.124Z,12.50
2018-03-25T18:09:25.281Z,12.50
2018-03-25T18:11:53.424Z,12.40
2018-03-25T18:14:23.096Z,12.30
2018-03-25T18:16:51.225Z,12.30
2018-03-25T18:19:20.211Z,12.30
2018-03-25T18:21:48.285Z,12.20
2018-03-25T18:24:17.216Z,12.20
2018-03-25T18:26:45.368Z,12.20
2018-03-25T18:29:14.279Z,12.10
2018-03-25T18:31:42.407Z,12.10
2018-03-25T18:34:11.312Z,12.00
2018-03-25T18:36:39.447Z,12.00
2018-03-25T18:39:07.664Z,12.00
2018-03-25T18:41:35.836Z,12.00
2018-03-25T18:44:03.964Z,11.90
2018-03-25T18:46:32.175Z,11.90
2018-03-25T18:49:01.179Z,11.80
2018-03-25T18:51:29.305Z,11.80
2018-03-25T18:53:57.427Z,11.80
2018-03-25T18:56:25.578Z,11.80
2018-03-25T18:58:54.466Z,11.70
2018-03-25T19:01:23.406Z,11.70
2018-03-25T19:03:51.508Z,11.70
2018-03-25T19:06:19.643Z,11.70
2018-03-25T19:08:47.823Z,11.60
2018-03-25T19:11:15.941Z,11.60
2018-03-25T19:13:45.645Z,11.60
2018-03-25T19:16:14.563Z,11.60
2018-03-25T19:18:43.453Z,11.60
2018-03-25T19:21:12.479Z,11.60
2018-03-25T19:23:40.639Z,11.50
2018-03-25T19:26:08.803Z,11.50
2018-03-25T19:28:36.975Z,11.50
2018-03-25T19:31:05.148Z,11.50
2018-03-25T19:33:34.023Z,11.40
2018-03-25T19:36:02.955Z,11.40
2018-03-25T19:38:31.127Z,11.40
2018-03-25T19:40:59.253Z,11.50
2018-03-25T19:43:28.172Z,11.40
2018-03-25T19:45:56.332Z,11.40
2018-03-25T19:48:25.223Z,11.30
2018-03-25T19:50:53.383Z,11.40
2018-03-25T19:53:22.279Z,11.30
2018-03-25T19:55:51.169Z,11.30
2018-03-25T19:58:20.076Z,11.30
2018-03-25T20:00:48.262Z,11.30
2018-03-25T20:03:16.371Z,11.20
2018-03-25T20:05:44.487Z,11.20
2018-03-25T20:08:12.631Z,11.20
2018-03-25T20:10:42.267Z,11.20
2018-03-25T20:13:11.150Z,11.20
2018-03-25T20:15:40.034Z,11.20
2018-03-25T20:18:08.956Z,11.20
2018-03-25T20:20:37.112Z,11.20
2018-03-25T20:23:05.995Z,11.10
2018-03-25T20:25:34.890Z,11.10
2018-03-25T20:28:03.944Z,11.10
2018-03-25T20:30:32.075Z,11.10
2018-03-25T20:33:00.190Z,11.10
2018-03-25T20:35:28.412Z,11.10
2018-03-25T20:37:56.585Z,11.10
2018-03-25T20:40:24.725Z,11.10
2018-03-25T20:42:52.930Z,11.00
2018-03-25T20:45:21.110Z,11.00
2018-03-25T20:47:49.245Z,11.00
2018-03-25T20:50:18.993Z,10.90
2018-03-25T20:52:47.184Z,10.90
2018-03-25T20:55:15.283Z,10.90
2018-03-25T20:57:43.392Z,11.00
2018-03-25T21:00:12.296Z,11.00
2018-03-25T21:02:40.479Z,11.00
2018-03-25T21:05:08.548Z,11.00
2018-03-25T21:07:36.667Z,10.90
2018-03-25T21:10:04.794Z,11.00
2018-03-25T21:12:32.950Z,10.90
2018-03-25T21:15:01.836Z,10.90
2018-03-25T21:17:30.715Z,10.90
2018-03-25T21:19:59.620Z,10.90
2018-03-25T21:22:28.508Z,10.90
2018-03-25T21:24:57.392Z,10.90
2018-03-25T21:27:25.524Z,10.80
2018-03-25T21:29:53.644Z,10.90
2018-03-25T21:32:22.655Z,10.80
2018-03-25T21:34:50.836Z,10.80
2018-03-25T21:37:18.957Z,10.70
2018-03-25T21:39:47.098Z,10.70
2018-03-25T21:42:15.363Z,10.70
2018-03-25T21:44:43.537Z,10.70
2018-03-25T21:47:11.696Z,10.70
2018-03-25T21:49:39.832Z,10.70
2018-03-25T21:52:08.767Z,10.60
2018-03-25T21:54:36.891Z,10.60
2018-03-25T21:57:05.109Z,10.60
2018-03-25T21:59:33.235Z,10.50
2018-03-25T22:02:01.462Z,10.50
2018-03-25T22:04:30.011Z,10.40
2018-03-25T22:06:58.233Z,10.50
2018-03-25T22:09:26.362Z,10.40
2018-03-25T22:11:55.255Z,10.40
2018-03-25T22:14:24.160Z,10.40
2018-03-25T22:16:53.053Z,10.40
2018-03-25T22:19:21.203Z,10.40
2018-03-25T22:21:50.110Z,10.30
2018-03-25T22:24:19.019Z,10.30
2018-03-25T22:26:47.187Z,10.30
2018-03-25T22:29:15.317Z,10.30
2018-03-25T22:31:43.526Z,10.30
2018-03-25T22:34:11.648Z,10.30
2018-03-25T22:36:39.884Z,10.20
2018-03-25T22:39:08.017Z,10.20
2018-03-25T22:41:36.139Z,10.20
2018-03-25T22:44:04.264Z,10.20
2018-03-25T22:46:33.168Z,10.10
2018-03-25T22:49:02.077Z,10.10
2018-03-25T22:51:30.229Z,10.10
2018-03-25T22:53:59.137Z,10.10
2018-03-25T22:56:27.309Z,10.10
2018-03-25T22:58:55.446Z,10.10
2018-03-25T23:01:24.376Z,10.10
2018-03-25T23:03:52.540Z,10.10
2018-03-25T23:06:21.420Z,10.10
2018-03-25T23:08:50.349Z,10.10
2018-03-25T23:11:18.484Z,10.00
2018-03-25T23:13:47.418Z,10.10
2018-03-25T23:16:15.544Z,10.00
2018-03-25T23:18:43.664Z,10.00
2018-03-25T23:21:11.812Z,10.00
2018-03-25T23:23:40.734Z,10.00
2018-03-25T23:26:08.851Z,9.90
2018-03-25T23:28:37.820Z,9.90
2018-03-25T23:31:06.033Z,9.90
2018-03-25T23:33:34.944Z,9.90
2018-03-25T23:36:03.050Z,9.90
2018-03-25T23:38:31.168Z,9.80
2018-03-25T23:41:00.068Z,9.80
2018-03-25T23:43:28.212Z,9.80
2018-03-25T23:45:56.308Z,9.80
2018-03-25T23:48:24.416Z,9.70
2018-03-25T23:50:52.637Z,9.70
2018-03-25T23:53:22.364Z,9.70
2018-03-25T23:55:51.246Z,9.70
2018-03-25T23:58:20.118Z,9.70
